Time;durP1;ratioP1;P1;durP2;ratioP2;P2;SDS_P1;SDS_P2;PMS_P1;PMS_P2;Temp;Humidity;BMP_temperature;BMP_pressure;BME280_temperature;BME280_humidity;BME280_pressure;Samples;Min_cycle;Max_cycle;Signal;HPM_P1;HPM_P2
2023/07/24 00:00:35;;;;;;;67.97;28.00;;;20.80;99.90;;;;;;6241233;23;20404;-74
2023/07/24 00:03:02;;;;;;;68.03;27.07;;;20.90;99.90;;;;;;6240961;23;20541;-73
2023/07/24 00:05:30;;;;;;;66.77;26.47;;;20.90;99.90;;;;;;6241730;23;20404;-74
2023/07/24 00:07:57;;;;;;;66.10;26.23;;;20.80;99.90;;;;;;6241773;23;20490;-73
2023/07/24 00:10:24;;;;;;;67.37;27.00;;;20.70;99.90;;;;;;6241677;23;20790;-73
2023/07/24 00:12:50;;;;;;;65.67;25.60;;;20.70;99.90;;;;;;6241660;22;20432;-74
2023/07/24 00:15:17;;;;;;;70.83;27.03;;;20.70;99.90;;;;;;6241605;23;20747;-75
2023/07/24 00:17:44;;;;;;;68.07;27.77;;;20.80;99.90;;;;;;6241504;23;20469;-74
2023/07/24 00:20:11;;;;;;;68.30;25.97;;;20.90;99.90;;;;;;6241733;23;20412;-75
2023/07/24 00:22:40;;;;;;;68.70;27.73;;;20.90;99.90;;;;;;6241707;23;20404;-73
2023/07/24 00:25:08;;;;;;;73.07;33.73;;;20.90;99.90;;;;;;6241782;23;20461;-81
2023/07/24 00:27:35;;;;;;;80.60;45.67;;;20.80;99.90;;;;;;6242054;23;20438;-79
2023/07/24 00:30:02;;;;;;;78.63;43.50;;;20.30;99.90;;;;;;6241594;23;20408;-77
2023/07/24 00:32:29;;;;;;;80.87;46.37;;;20.00;99.90;;;;;;6241426;23;20891;-77
2023/07/24 00:34:56;;;;;;;80.80;46.27;;;19.60;99.90;;;;;;6241504;23;20439;-75
2023/07/24 00:37:22;;;;;;;82.70;47.70;;;19.40;99.90;;;;;;6241678;23;20400;-75
2023/07/24 00:39:50;;;;;;;87.87;47.73;;;19.20;99.90;;;;;;6241301;23;20415;-77
2023/07/24 00:42:17;;;;;;;80.83;46.03;;;19.00;99.90;;;;;;6241495;23;20411;-78
2023/07/24 00:44:44;;;;;;;80.57;47.07;;;18.80;99.90;;;;;;6242853;23;20431;-78
2023/07/24 00:47:10;;;;;;;81.40;46.33;;;18.80;99.90;;;;;;6243459;23;20408;-78
2023/07/24 00:49:37;;;;;;;79.37;47.20;;;18.70;99.90;;;;;;6243316;23;20411;-79
2023/07/24 00:52:04;;;;;;;79.90;46.27;;;18.70;99.90;;;;;;6249929;23;20416;-80
2023/07/24 00:54:34;;;;;;;78.97;44.60;;;18.70;99.90;;;;;;6244195;23;20470;-81
2023/07/24 00:57:02;;;;;;;77.70;42.80;;;18.70;99.90;;;;;;6243528;23;20404;-83
2023/07/24 00:59:29;;;;;;;77.77;40.77;;;18.70;99.90;;;;;;6243581;23;20522;-83
2023/07/24 01:01:56;;;;;;;75.17;39.57;;;18.70;99.90;;;;;;6243003;23;20408;-82
2023/07/24 01:04:23;;;;;;;74.60;40.73;;;18.70;99.90;;;;;;6243434;23;20443;-79
2023/07/24 01:06:50;;;;;;;75.40;37.63;;;18.70;99.90;;;;;;6243105;23;20415;-77
2023/07/24 01:09:17;;;;;;;76.77;35.70;;;18.70;99.90;;;;;;6243317;23;20434;-77
2023/07/24 01:11:48;;;;;;;74.00;34.10;;;18.80;99.90;;;;;;6242970;22;20439;-76
2023/07/24 01:14:22;;;;;;;75.87;32.30;;;18.70;99.90;;;;;;6242705;23;20443;-77
2023/07/24 01:16:50;;;;;;;71.10;30.00;;;18.70;99.90;;;;;;6242816;23;20428;-77
2023/07/24 01:19:24;;;;;;;73.20;30.43;;;18.70;99.90;;;;;;6242742;23;20419;-78
2023/07/24 01:22:02;;;;;;;72.87;29.63;;;18.80;99.90;;;;;;6243135;23;20483;-78
2023/07/24 01:24:37;;;;;;;72.10;30.47;;;18.90;99.90;;;;;;6242625;23;20471;-77
2023/07/24 01:27:07;;;;;;;72.50;29.87;;;19.00;99.90;;;;;;6242546;23;20391;-77
2023/07/24 01:29:34;;;;;;;71.97;30.63;;;19.20;99.90;;;;;;6242411;23;20894;-77
2023/07/24 01:32:01;;;;;;;73.23;30.30;;;19.30;99.90;;;;;;6242333;23;20419;-77
2023/07/24 01:34:28;;;;;;;78.53;30.87;;;19.40;99.90;;;;;;6242470;23;20666;-76
2023/07/24 01:36:55;;;;;;;72.60;29.87;;;19.40;99.90;;;;;;6242428;23;20444;-78
2023/07/24 01:39:22;;;;;;;70.50;29.33;;;19.60;99.90;;;;;;6242686;23;20430;-77
2023/07/24 01:41:49;;;;;;;70.43;29.37;;;19.60;99.90;;;;;;6242197;23;20930;-76
2023/07/24 01:44:17;;;;;;;70.07;28.57;;;19.60;99.90;;;;;;6242193;23;20412;-77
2023/07/24 01:46:44;;;;;;;73.80;29.30;;;19.60;99.90;;;;;;6242700;23;20411;-76
2023/07/24 01:49:11;;;;;;;70.50;28.50;;;19.60;99.90;;;;;;6242465;23;20534;-76
2023/07/24 01:51:38;;;;;;;73.17;28.47;;;19.60;99.90;;;;;;6242033;23;20949;-75
2023/07/24 01:54:04;;;;;;;76.90;30.07;;;19.60;99.90;;;;;;6242518;23;20414;-76
2023/07/24 01:56:31;;;;;;;69.43;28.60;;;19.50;99.90;;;;;;6242481;23;20446;-77
2023/07/24 01:58:58;;;;;;;71.47;29.60;;;19.50;99.90;;;;;;6243294;23;20404;-76
2023/07/24 02:01:26;;;;;;;71.73;28.70;;;19.50;99.90;;;;;;6242855;23;20423;-76
2023/07/24 02:03:52;;;;;;;71.50;29.60;;;19.50;99.90;;;;;;6243274;23;20769;-76
2023/07/24 02:06:19;;;;;;;70.50;29.47;;;19.50;99.90;;;;;;6243017;23;20411;-75
2023/07/24 02:08:48;;;;;;;71.67;28.67;;;19.50;99.90;;;;;;6243381;23;20415;-75
2023/07/24 02:11:15;;;;;;;73.90;29.73;;;19.40;99.90;;;;;;6242995;22;20420;-75
2023/07/24 02:13:44;;;;;;;71.03;28.23;;;19.40;99.90;;;;;;6242532;23;20436;-74
2023/07/24 02:16:11;;;;;;;70.23;28.20;;;19.40;99.90;;;;;;6242679;23;20766;-74
2023/07/24 02:18:39;;;;;;;69.97;28.20;;;19.40;99.90;;;;;;6242539;23;20718;-74
2023/07/24 02:21:06;;;;;;;74.67;28.83;;;19.30;99.90;;;;;;6243030;23;20408;-75
2023/07/24 02:23:32;;;;;;;70.17;27.30;;;19.30;99.90;;;;;;6242861;23;20412;-75
2023/07/24 02:25:59;;;;;;;71.57;29.00;;;19.30;99.90;;;;;;6242901;23;20408;-75
2023/07/24 02:28:26;;;;;;;72.40;28.90;;;19.30;99.90;;;;;;6242751;23;20420;-74
2023/07/24 02:30:55;;;;;;;71.50;27.10;;;19.30;99.90;;;;;;6242679;23;20498;-74
2023/07/24 02:33:22;;;;;;;72.17;27.83;;;19.40;99.90;;;;;;6242280;23;20511;-74
2023/07/24 02:35:53;;;;;;;73.53;29.90;;;19.40;99.90;;;;;;6242623;23;20436;-74
2023/07/24 02:38:20;;;;;;;71.00;29.67;;;19.40;99.90;;;;;;6242929;23;20396;-74
2023/07/24 02:40:46;;;;;;;74.10;31.17;;;19.40;99.90;;;;;;6242644;23;20404;-74
2023/07/24 02:43:13;;;;;;;75.20;31.97;;;19.40;99.90;;;;;;6242584;23;20471;-74
2023/07/24 02:45:40;;;;;;;74.40;30.97;;;19.40;99.90;;;;;;6242182;23;20415;-74
2023/07/24 02:48:07;;;;;;;72.63;29.60;;;19.40;99.90;;;;;;6242664;23;20411;-73
2023/07/24 02:50:34;;;;;;;71.17;28.90;;;19.40;99.90;;;;;;6242817;23;20419;-73
2023/07/24 02:53:02;;;;;;;73.43;28.67;;;19.40;99.90;;;;;;6242803;23;20411;-73
2023/07/24 02:55:29;;;;;;;71.60;29.57;;;19.40;99.90;;;;;;6242603;23;20458;-74
2023/07/24 02:57:56;;;;;;;72.63;29.13;;;19.30;99.90;;;;;;6242184;23;20412;-73
2023/07/24 03:00:23;;;;;;;74.00;29.00;;;19.20;99.90;;;;;;6242669;23;20418;-74
2023/07/24 03:02:49;;;;;;;73.90;29.47;;;19.20;99.90;;;;;;6242519;23;20404;-73
2023/07/24 03:05:16;;;;;;;73.00;29.27;;;19.10;99.90;;;;;;6242527;23;20412;-74
2023/07/24 03:07:43;;;;;;;73.17;27.60;;;19.20;99.90;;;;;;6241861;23;20412;-74
2023/07/24 03:10:11;;;;;;;71.67;28.30;;;19.20;99.90;;;;;;6242390;23;20403;-74
2023/07/24 03:12:38;;;;;;;70.80;28.97;;;19.20;99.90;;;;;;6242109;22;20439;-74
2023/07/24 03:15:06;;;;;;;72.97;29.87;;;19.10;99.90;;;;;;6241889;23;20460;-74
2023/07/24 03:17:32;;;;;;;74.27;29.10;;;19.00;99.90;;;;;;6241934;23;20447;-73
2023/07/24 03:20:08;;;;;;;72.47;29.50;;;19.00;99.90;;;;;;6242394;23;20415;-73
2023/07/24 03:22:35;;;;;;;73.07;29.70;;;19.00;99.90;;;;;;6242342;23;20396;-75
2023/07/24 03:25:02;;;;;;;70.30;29.37;;;18.80;99.90;;;;;;6242569;23;20404;-74
2023/07/24 03:27:30;;;;;;;71.70;30.10;;;18.80;99.90;;;;;;6242637;23;20431;-74
2023/07/24 03:29:56;;;;;;;71.10;28.80;;;18.70;99.90;;;;;;6241913;23;20891;-74
2023/07/24 03:35:04;;;;;;;72.40;29.83;;;18.70;99.90;;;;;;6234582;23;20937;-78
2023/07/24 03:37:31;;;;;;;71.27;28.30;;;18.60;99.90;;;;;;6241664;23;20451;-77
2023/07/24 03:39:58;;;;;;;71.30;28.53;;;18.60;99.90;;;;;;6241789;23;20407;-78
2023/07/24 03:42:30;;;;;;;72.60;27.87;;;18.60;99.90;;;;;;6241601;23;20407;-78
2023/07/24 03:44:57;;;;;;;72.60;29.00;;;18.70;99.90;;;;;;6241401;23;20414;-77
2023/07/24 03:47:25;;;;;;;69.90;27.90;;;18.60;99.90;;;;;;6240991;23;20404;-78
2023/07/24 03:49:52;;;;;;;69.57;28.13;;;18.70;99.90;;;;;;6241539;23;20765;-78
2023/07/24 03:52:18;;;;;;;73.10;30.27;;;18.70;99.90;;;;;;6241424;23;20415;-78
2023/07/24 03:54:45;;;;;;;73.10;31.03;;;18.80;99.90;;;;;;6241627;23;20720;-77
2023/07/24 03:57:12;;;;;;;71.10;28.80;;;18.90;99.90;;;;;;6240478;23;20439;-76
2023/07/24 03:59:40;;;;;;;71.27;29.93;;;18.90;99.90;;;;;;6239686;23;20408;-76
2023/07/24 04:02:07;;;;;;;72.57;29.23;;;19.00;99.90;;;;;;6241138;23;20514;-77
2023/07/24 04:04:34;;;;;;;73.10;28.07;;;19.10;99.90;;;;;;6241475;23;20412;-75
2023/07/24 04:07:00;;;;;;;71.97;30.00;;;19.10;99.90;;;;;;6241272;23;20408;-76
2023/07/24 04:09:27;;;;;;;72.30;28.80;;;19.20;99.90;;;;;;6241214;23;20731;-75
2023/07/24 04:11:54;;;;;;;71.30;29.40;;;19.20;99.90;;;;;;6241243;23;20423;-76
2023/07/24 04:14:21;;;;;;;72.47;28.63;;;19.20;99.90;;;;;;6241094;23;20420;-77
2023/07/24 04:16:49;;;;;;;76.30;28.10;;;19.20;99.90;;;;;;6240870;23;20439;-79
2023/07/24 04:19:15;;;;;;;72.47;28.87;;;19.30;99.90;;;;;;6241457;23;20404;-75
2023/07/24 04:21:42;;;;;;;72.60;30.73;;;19.30;99.90;;;;;;6242943;23;20403;-75
2023/07/24 04:24:09;;;;;;;72.63;28.70;;;19.30;99.90;;;;;;6242990;23;20406;-76
2023/07/24 04:26:36;;;;;;;72.17;28.07;;;19.30;99.90;;;;;;6242320;23;20402;-76
2023/07/24 04:29:02;;;;;;;71.40;29.47;;;19.40;99.90;;;;;;6242242;23;20734;-76
2023/07/24 04:31:29;;;;;;;70.97;28.60;;;19.40;99.90;;;;;;6242610;23;20400;-79
2023/07/24 04:33:57;;;;;;;71.57;29.43;;;19.50;99.90;;;;;;6242325;23;20439;-77
2023/07/24 04:36:24;;;;;;;72.10;28.03;;;19.50;99.90;;;;;;6242726;23;20443;-77
2023/07/24 04:38:50;;;;;;;77.43;28.77;;;19.50;99.90;;;;;;6242417;23;20430;-78
2023/07/24 04:41:17;;;;;;;74.50;27.83;;;19.60;99.90;;;;;;6242481;23;20411;-77
2023/07/24 04:43:44;;;;;;;71.70;29.27;;;19.60;99.90;;;;;;6242808;23;20412;-76
2023/07/24 04:46:10;;;;;;;74.27;28.70;;;19.70;99.90;;;;;;6241992;23;20892;-77
2023/07/24 04:48:37;;;;;;;71.70;30.60;;;19.80;99.90;;;;;;6242534;23;20410;-77
2023/07/24 04:51:05;;;;;;;72.27;29.80;;;19.80;99.90;;;;;;6242118;23;20924;-79
2023/07/24 04:53:32;;;;;;;74.70;28.00;;;19.90;99.90;;;;;;6242819;23;20408;-76
2023/07/24 04:55:58;;;;;;;73.30;29.13;;;19.90;99.90;;;;;;6242332;23;20404;-79
2023/07/24 04:58:25;;;;;;;79.90;30.97;;;19.90;99.90;;;;;;6242773;23;20465;-78
2023/07/24 05:00:52;;;;;;;73.83;30.40;;;20.00;99.90;;;;;;6242536;23;20888;-77
2023/07/24 05:03:19;;;;;;;73.87;30.03;;;19.90;99.90;;;;;;6243227;23;20408;-77
2023/07/24 05:05:49;;;;;;;78.87;30.80;;;20.00;99.90;;;;;;6243021;23;20488;-77
2023/07/24 05:08:17;;;;;;;79.17;29.90;;;20.10;99.90;;;;;;6243085;23;20422;-77
2023/07/24 05:10:44;;;;;;;72.77;28.10;;;20.20;99.90;;;;;;6241801;23;20419;-77
2023/07/24 05:13:10;;;;;;;75.90;29.60;;;20.20;99.90;;;;;;6228769;23;20779;-75
2023/07/24 05:15:37;;;;;;;70.97;29.40;;;20.20;99.90;;;;;;6241614;23;20411;-75
2023/07/24 05:18:04;;;;;;;71.90;29.40;;;20.20;99.90;;;;;;6241764;23;20494;-75
2023/07/24 05:20:30;;;;;;;75.70;30.00;;;20.30;99.90;;;;;;6241578;23;20404;-76
2023/07/24 05:22:57;;;;;;;72.73;30.37;;;20.40;99.90;;;;;;6241746;23;20411;-76
2023/07/24 05:25:25;;;;;;;75.27;30.37;;;20.40;99.90;;;;;;6241845;23;20412;-76
2023/07/24 05:27:52;;;;;;;77.57;32.77;;;20.50;99.90;;;;;;6242269;23;20755;-76
2023/07/24 05:30:18;;;;;;;74.80;31.13;;;20.60;99.90;;;;;;6241412;23;20416;-76
2023/07/24 05:32:45;;;;;;;77.90;30.90;;;20.60;99.90;;;;;;6241160;23;20408;-76
2023/07/24 05:35:12;;;;;;;77.53;30.80;;;20.50;99.90;;;;;;6241967;23;20778;-76
2023/07/24 05:37:38;;;;;;;74.97;31.60;;;20.60;99.90;;;;;;6241501;23;20448;-77
2023/07/24 05:40:10;;;;;;;77.73;33.40;;;20.60;99.90;;;;;;6241407;23;20899;-72
2023/07/24 05:42:41;;;;;;;80.07;33.47;;;20.70;99.90;;;;;;6235736;23;20880;-75
2023/07/24 05:45:09;;;;;;;75.63;29.90;;;20.50;99.90;;;;;;6241377;23;20401;-76
2023/07/24 05:47:36;;;;;;;77.70;30.70;;;20.50;99.90;;;;;;6241774;23;20776;-75
2023/07/24 05:50:03;;;;;;;74.60;30.80;;;20.50;99.90;;;;;;6241768;23;20458;-76
2023/07/24 05:52:29;;;;;;;75.33;31.00;;;20.50;99.90;;;;;;6241805;23;20412;-74
2023/07/24 05:54:56;;;;;;;73.43;29.77;;;20.60;99.90;;;;;;6241199;23;20780;-76
2023/07/24 05:57:23;;;;;;;73.50;27.33;;;20.70;99.90;;;;;;6241185;23;20447;-75
2023/07/24 05:59:51;;;;;;;75.00;30.53;;;20.80;99.90;;;;;;6240850;23;20907;-76
2023/07/24 06:02:18;;;;;;;77.23;31.63;;;20.90;99.90;;;;;;6241282;23;20420;-77
2023/07/24 06:04:45;;;;;;;82.63;31.90;;;20.90;99.90;;;;;;6240361;23;20411;-76
2023/07/24 06:07:11;;;;;;;73.93;30.90;;;20.90;99.90;;;;;;6239088;23;20564;-76
2023/07/24 06:09:38;;;;;;;75.70;29.60;;;21.00;99.90;;;;;;6241320;23;20411;-76
2023/07/24 06:12:06;;;;;;;72.57;28.30;;;21.00;99.90;;;;;;6241173;23;20923;-76
2023/07/24 06:14:32;;;;;;;73.03;29.53;;;21.10;99.90;;;;;;6241672;23;20407;-76
2023/07/24 06:17:00;;;;;;;72.70;29.47;;;21.10;99.90;;;;;;6241250;23;20788;-76
2023/07/24 06:19:27;;;;;;;70.97;28.90;;;21.30;99.90;;;;;;6241215;23;20403;-76
2023/07/24 06:21:54;;;;;;;71.87;29.60;;;21.30;99.90;;;;;;6240499;23;20419;-76
2023/07/24 06:24:20;;;;;;;73.83;29.10;;;21.30;99.90;;;;;;6239949;23;20408;-76
2023/07/24 06:26:47;;;;;;;71.37;28.60;;;21.30;99.90;;;;;;6240152;23;20950;-76
2023/07/24 06:29:14;;;;;;;69.97;27.40;;;21.30;99.90;;;;;;6239650;23;20423;-76
2023/07/24 06:31:41;;;;;;;73.40;28.37;;;21.20;99.90;;;;;;6239916;23;20427;-76
2023/07/24 06:34:09;;;;;;;71.37;29.00;;;21.20;99.90;;;;;;6239934;23;20436;-76
2023/07/24 06:36:35;;;;;;;72.93;28.90;;;21.30;99.90;;;;;;6240117;23;20720;-76
2023/07/24 06:39:02;;;;;;;74.27;29.80;;;21.40;99.90;;;;;;6240437;23;20522;-76
2023/07/24 06:41:29;;;;;;;74.17;30.40;;;21.50;99.90;;;;;;6239875;23;20408;-76
2023/07/24 06:43:55;;;;;;;74.67;29.50;;;21.70;99.90;;;;;;6239662;23;20909;-76
2023/07/24 06:46:22;;;;;;;71.30;28.63;;;21.80;99.90;;;;;;6239784;23;20434;-74
2023/07/24 06:48:49;;;;;;;73.07;29.67;;;22.00;99.90;;;;;;6240023;23;20408;-74
2023/07/24 06:51:17;;;;;;;76.00;29.60;;;22.00;99.90;;;;;;6240299;23;20407;-76
2023/07/24 06:53:43;;;;;;;74.80;28.60;;;22.10;99.90;;;;;;6240733;23;20515;-76
2023/07/24 06:56:10;;;;;;;72.50;29.17;;;22.20;99.90;;;;;;6240006;23;20434;-76
2023/07/24 06:58:37;;;;;;;74.50;29.90;;;22.20;99.90;;;;;;6239825;23;20443;-76
2023/07/24 07:01:07;;;;;;;73.40;30.03;;;22.30;99.90;;;;;;6239728;23;20923;-76
2023/07/24 07:03:34;;;;;;;74.67;30.07;;;22.30;99.90;;;;;;6240248;23;20926;-76
2023/07/24 07:06:01;;;;;;;75.67;30.73;;;22.20;99.90;;;;;;6240276;23;20412;-76
2023/07/24 07:08:30;;;;;;;74.67;30.50;;;22.10;99.90;;;;;;6240440;23;20404;-75
2023/07/24 07:10:57;;;;;;;74.13;30.97;;;22.00;99.90;;;;;;6240660;23;20414;-75
2023/07/24 07:13:24;;;;;;;76.03;30.87;;;22.00;99.90;;;;;;6240327;23;20431;-76
2023/07/24 07:15:50;;;;;;;71.50;29.00;;;22.00;99.90;;;;;;6240150;23;20404;-73
2023/07/24 07:18:17;;;;;;;74.07;29.20;;;22.10;99.90;;;;;;6240524;23;20444;-73
2023/07/24 07:20:46;;;;;;;74.87;30.27;;;22.10;99.90;;;;;;6240830;23;20774;-74
2023/07/24 07:23:13;;;;;;;74.23;29.57;;;22.10;99.90;;;;;;6240682;23;20400;-73
2023/07/24 07:25:43;;;;;;;73.40;28.43;;;22.20;99.90;;;;;;6240197;23;20446;-74
2023/07/24 07:28:09;;;;;;;75.07;30.83;;;22.30;99.90;;;;;;6240493;23;20434;-74
2023/07/24 07:30:36;;;;;;;77.87;31.00;;;22.30;99.90;;;;;;6240283;23;20418;-74
2023/07/24 07:33:04;;;;;;;78.93;30.50;;;22.30;99.90;;;;;;6239914;23;20436;-74
2023/07/24 07:35:31;;;;;;;74.20;30.90;;;22.30;99.90;;;;;;6240288;23;20483;-74
2023/07/24 07:37:58;;;;;;;79.77;31.93;;;22.20;99.90;;;;;;6240848;23;20439;-74
2023/07/24 07:40:26;;;;;;;76.40;30.90;;;22.20;99.90;;;;;;6240507;23;20896;-75
2023/07/24 07:42:54;;;;;;;73.50;29.50;;;22.30;99.90;;;;;;6240593;23;20412;-75
2023/07/24 07:45:21;;;;;;;73.83;31.70;;;22.40;99.90;;;;;;6240212;23;20412;-74
2023/07/24 07:47:48;;;;;;;73.40;31.70;;;22.50;99.90;;;;;;6240515;23;20404;-75
2023/07/24 07:50:15;;;;;;;76.73;31.83;;;22.60;99.90;;;;;;6240999;23;20419;-75
2023/07/24 07:52:41;;;;;;;80.40;32.70;;;22.80;99.90;;;;;;6241267;23;20787;-75
2023/07/24 07:55:09;;;;;;;77.03;33.43;;;23.00;99.90;;;;;;6242694;23;20412;-75
2023/07/24 07:57:36;;;;;;;83.17;34.40;;;23.10;99.90;;;;;;6242762;23;20468;-75
2023/07/24 08:00:05;;;;;;;73.37;32.00;;;23.30;99.90;;;;;;6242681;23;20427;-76
2023/07/24 08:02:34;;;;;;;79.77;32.47;;;23.30;99.90;;;;;;6242933;23;20459;-75
2023/07/24 08:05:00;;;;;;;78.40;35.10;;;23.40;99.90;;;;;;6242911;23;20863;-75
2023/07/24 08:07:27;;;;;;;85.20;34.00;;;23.40;99.90;;;;;;6243137;23;20403;-75
2023/07/24 08:09:54;;;;;;;79.17;35.20;;;23.30;99.90;;;;;;6242796;23;20407;-75
2023/07/24 08:12:20;;;;;;;79.33;32.50;;;23.30;99.90;;;;;;6242815;23;20521;-75
2023/07/24 08:14:47;;;;;;;76.93;32.53;;;23.20;99.90;;;;;;6242377;23;20404;-76
2023/07/24 08:17:15;;;;;;;72.57;31.60;;;23.20;99.90;;;;;;6241942;23;20903;-75
2023/07/24 08:19:42;;;;;;;76.03;33.93;;;23.20;99.90;;;;;;6242434;23;20419;-75
2023/07/24 08:22:08;;;;;;;79.10;40.70;;;23.20;99.90;;;;;;6242704;23;20414;-75
2023/07/24 08:24:36;;;;;;;80.50;43.57;;;22.80;99.90;;;;;;6242202;23;20407;-75
2023/07/24 08:27:02;;;;;;;85.80;53.10;;;22.50;99.90;;;;;;6242866;23;20465;-74
2023/07/24 08:29:29;;;;;;;83.50;51.37;;;22.10;99.90;;;;;;6242192;23;20416;-74
2023/07/24 08:31:56;;;;;;;87.40;54.23;;;21.80;99.90;;;;;;6242347;23;20712;-76
2023/07/24 08:34:24;;;;;;;92.67;58.07;;;21.50;99.90;;;;;;6242112;23;20466;-75
2023/07/24 08:36:51;;;;;;;94.57;61.10;;;21.20;99.90;;;;;;6242107;23;20499;-75
2023/07/24 08:39:17;;;;;;;91.67;58.40;;;21.00;99.90;;;;;;6242279;23;20435;-75
2023/07/24 08:41:44;;;;;;;91.20;57.60;;;20.90;99.90;;;;;;6242285;23;20408;-75
2023/07/24 08:44:11;;;;;;;89.50;53.67;;;20.80;99.90;;;;;;6242165;23;20708;-76
2023/07/24 08:46:41;;;;;;;93.30;57.03;;;20.70;99.90;;;;;;6242581;23;20438;-76
2023/07/24 08:49:11;;;;;;;92.97;55.07;;;20.60;99.90;;;;;;6242366;23;20408;-76
2023/07/24 08:51:41;;;;;;;91.67;54.87;;;20.50;99.90;;;;;;6242377;23;20471;-79
2023/07/24 08:54:09;;;;;;;85.27;51.70;;;20.60;99.90;;;;;;6242007;23;20511;-79
2023/07/24 08:56:37;;;;;;;86.50;53.27;;;20.50;99.90;;;;;;6242211;23;20907;-77
2023/07/24 08:59:04;;;;;;;86.10;50.43;;;20.60;99.90;;;;;;6241612;23;20965;-78
2023/07/24 09:01:31;;;;;;;88.63;51.87;;;20.60;99.90;;;;;;6242206;23;20423;-77
2023/07/24 09:03:57;;;;;;;85.70;52.47;;;20.60;99.90;;;;;;6242010;23;20414;-77
2023/07/24 09:06:24;;;;;;;83.00;51.03;;;20.70;99.90;;;;;;6242084;23;20408;-80
2023/07/24 09:08:55;;;;;;;80.97;50.53;;;20.80;99.90;;;;;;6242305;23;20526;-79
2023/07/24 09:11:21;;;;;;;78.57;42.50;;;20.90;99.90;;;;;;6242232;23;20628;-82
2023/07/24 09:13:49;;;;;;;75.30;34.27;;;20.90;99.90;;;;;;6242463;23;20407;-81
2023/07/24 09:16:23;;;;;;;74.53;34.40;;;21.10;99.90;;;;;;6242269;23;20408;-83
2023/07/24 09:18:51;;;;;;;77.00;31.10;;;21.40;99.90;;;;;;6242107;23;20451;-83
2023/07/24 09:21:28;;;;;;;72.80;30.83;;;21.90;99.90;;;;;;6242591;23;20458;-83
2023/07/24 09:23:56;;;;;;;72.97;30.30;;;22.50;99.90;;;;;;6242213;23;20396;-83
2023/07/24 09:26:23;;;;;;;71.80;31.73;;;22.90;99.90;;;;;;6242553;23;20411;-83
2023/07/24 09:28:53;;;;;;;73.20;31.83;;;23.10;99.90;;;;;;6241749;23;20892;-83
2023/07/24 09:31:20;;;;;;;73.30;30.90;;;23.10;99.90;;;;;;6241900;23;20878;-83
2023/07/24 09:33:47;;;;;;;70.97;31.60;;;23.30;99.90;;;;;;6241786;22;20442;-83
2023/07/24 09:36:14;;;;;;;68.43;29.10;;;23.40;99.90;;;;;;6242057;23;20419;-84
2023/07/24 09:38:42;;;;;;;71.10;29.10;;;23.60;99.90;;;;;;6242086;23;20446;-85
2023/07/24 09:41:11;;;;;;;73.10;30.33;;;23.60;99.90;;;;;;6242510;23;20464;-85
2023/07/24 09:43:38;;;;;;;72.87;30.10;;;23.50;99.90;;;;;;6242299;23;20408;-85
2023/07/24 09:46:06;;;;;;;67.57;28.37;;;23.50;99.90;;;;;;6241901;23;20412;-84
2023/07/24 09:48:34;;;;;;;69.50;29.50;;;23.30;99.90;;;;;;6242126;23;20436;-84
2023/07/24 09:51:01;;;;;;;69.50;28.33;;;23.30;99.90;;;;;;6241717;23;20765;-84
2023/07/24 09:53:34;;;;;;;70.40;29.07;;;23.30;99.90;;;;;;6242317;23;20709;-86
2023/07/24 09:56:04;;;;;;;69.60;29.63;;;23.30;99.90;;;;;;6241648;23;20415;-85
2023/07/24 09:58:35;;;;;;;73.80;29.30;;;23.40;99.90;;;;;;6241815;23;20450;-85
2023/07/24 10:01:03;;;;;;;72.90;29.17;;;23.70;99.90;;;;;;6242207;23;20499;-86
2023/07/24 10:03:30;;;;;;;68.90;29.07;;;24.00;99.90;;;;;;6243375;23;20557;-87
2023/07/24 10:05:57;;;;;;;69.40;30.80;;;23.90;99.90;;;;;;6242828;23;20412;-88
2023/07/24 10:08:26;;;;;;;70.30;30.10;;;23.90;99.90;;;;;;6243198;23;20404;-87
2023/07/24 10:10:53;;;;;;;67.67;28.53;;;23.90;99.90;;;;;;6242446;23;20415;-87
2023/07/24 10:13:21;;;;;;;71.50;29.80;;;23.70;99.90;;;;;;6243018;23;20497;-88
2023/07/24 10:15:49;;;;;;;69.70;29.50;;;23.60;99.90;;;;;;6243163;23;20484;-87
2023/07/24 10:18:18;;;;;;;73.10;31.47;;;23.60;99.90;;;;;;6242943;23;20440;-83
2023/07/24 10:20:44;;;;;;;71.03;31.53;;;23.40;99.90;;;;;;6242505;23;20436;-85
2023/07/24 10:23:16;;;;;;;71.40;31.90;;;23.40;99.90;;;;;;6241743;23;20475;-82
2023/07/24 10:25:46;;;;;;;70.67;32.63;;;23.20;99.90;;;;;;6241955;23;20875;-83
2023/07/24 10:28:16;;;;;;;71.87;31.23;;;23.00;99.90;;;;;;6241710;23;20744;-81
2023/07/24 10:30:43;;;;;;;71.97;33.57;;;22.90;99.90;;;;;;6241703;23;20444;-76
2023/07/24 10:33:13;;;;;;;75.60;36.10;;;22.80;99.90;;;;;;6241460;23;20438;-78
2023/07/24 10:35:42;;;;;;;75.90;38.20;;;22.70;99.90;;;;;;6241853;23;20583;-76
2023/07/24 10:38:09;;;;;;;74.43;39.37;;;22.60;99.90;;;;;;6241539;23;20530;-74
2023/07/24 10:40:35;;;;;;;79.30;48.93;;;22.40;99.90;;;;;;6242082;23;20419;-75
2023/07/24 10:43:06;;;;;;;93.50;51.10;;;22.30;99.90;;;;;;6241829;23;20403;-75
2023/07/24 10:45:43;;;;;;;86.57;49.60;;;22.10;99.90;;;;;;6241516;23;20415;-75
2023/07/24 10:48:12;;;;;;;89.10;55.23;;;22.00;99.90;;;;;;6241720;23;20849;-75
2023/07/24 10:50:40;;;;;;;88.20;52.77;;;21.70;99.90;;;;;;6241524;23;20471;-76
2023/07/24 10:53:06;;;;;;;91.03;58.87;;;21.50;99.90;;;;;;6241328;23;20837;-76
2023/07/24 10:55:33;;;;;;;96.40;55.40;;;21.20;99.90;;;;;;6241572;23;20404;-76
2023/07/24 10:58:00;;;;;;;89.77;58.30;;;21.00;99.90;;;;;;6241631;23;20415;-75
2023/07/24 11:00:27;;;;;;;91.37;57.33;;;20.80;99.90;;;;;;6241463;23;20404;-75
2023/07/24 11:02:55;;;;;;;94.10;58.97;;;20.60;99.90;;;;;;6241928;23;20462;-77
2023/07/24 11:05:23;;;;;;;94.37;59.27;;;20.50;99.90;;;;;;6241737;23;20408;-78
2023/07/24 11:07:50;;;;;;;94.37;61.60;;;20.40;99.90;;;;;;6241535;23;20434;-79
2023/07/24 11:10:17;;;;;;;95.30;59.60;;;20.40;99.90;;;;;;6241635;23;20414;-79
2023/07/24 11:12:44;;;;;;;91.47;55.50;;;20.30;99.90;;;;;;6241355;23;20487;-78
2023/07/24 11:15:12;;;;;;;96.47;59.50;;;20.20;99.90;;;;;;6241455;23;20422;-78
2023/07/24 11:17:40;;;;;;;92.67;58.13;;;20.10;99.90;;;;;;6241618;23;20434;-78
2023/07/24 11:20:09;;;;;;;90.10;56.70;;;20.00;99.90;;;;;;6241474;23;20440;-79
2023/07/24 11:22:39;;;;;;;91.73;57.40;;;19.90;99.90;;;;;;6241520;23;20412;-76
2023/07/24 11:25:07;;;;;;;90.47;58.63;;;19.80;99.90;;;;;;6241641;23;20472;-76
2023/07/24 11:27:33;;;;;;;91.27;54.37;;;19.70;99.90;;;;;;6240859;23;20469;-74
2023/07/24 11:30:00;;;;;;;91.90;57.20;;;19.70;99.90;;;;;;6241526;23;20404;-75
2023/07/24 11:32:27;;;;;;;91.40;59.47;;;19.70;99.90;;;;;;6241455;23;20707;-75
2023/07/24 11:34:54;;;;;;;91.57;58.60;;;19.70;99.90;;;;;;6241109;23;20939;-76
2023/07/24 11:37:21;;;;;;;90.30;61.53;;;19.70;99.90;;;;;;6240903;23;20523;-75
2023/07/24 11:39:58;;;;;;;88.43;58.53;;;19.80;99.90;;;;;;6241057;23;20440;-75
2023/07/24 11:42:27;;;;;;;89.77;57.40;;;19.90;99.90;;;;;;6241443;23;20399;-75
2023/07/24 11:44:54;;;;;;;88.93;54.60;;;19.90;99.90;;;;;;6241392;23;20462;-75
2023/07/24 11:47:21;;;;;;;87.00;55.40;;;20.20;99.90;;;;;;6241318;23;20935;-75
2023/07/24 11:49:57;;;;;;;84.10;55.60;;;20.70;99.90;;;;;;6241224;23;20410;-78
2023/07/24 11:52:24;;;;;;;83.83;48.30;;;21.30;99.90;;;;;;6241595;23;20402;-78
2023/07/24 11:55:00;;;;;;;75.40;41.37;;;21.80;99.90;;;;;;6241102;23;20641;-76
2023/07/24 11:57:28;;;;;;;76.87;39.90;;;22.30;99.90;;;;;;6241075;23;20398;-77
2023/07/24 11:59:57;;;;;;;74.93;38.00;;;22.10;99.90;;;;;;6241116;23;20565;-78
2023/07/24 12:02:26;;;;;;;75.30;36.97;;;22.00;99.90;;;;;;6241637;23;20418;-82
2023/07/24 12:04:57;;;;;;;79.10;37.80;;;21.60;99.90;;;;;;6241557;23;20415;-82
2023/07/24 12:07:29;;;;;;;83.40;38.40;;;21.60;99.90;;;;;;6241736;23;20637;-83
2023/07/24 12:09:56;;;;;;;75.87;36.80;;;21.70;99.90;;;;;;6241662;23;20844;-84
2023/07/24 12:12:24;;;;;;;77.13;36.27;;;21.70;99.90;;;;;;6241347;23;20432;-84
2023/07/24 12:14:50;;;;;;;74.57;35.50;;;21.70;99.90;;;;;;6242171;23;20419;-85
2023/07/24 12:17:19;;;;;;;75.07;35.47;;;21.70;99.90;;;;;;6243897;23;20415;-86
2023/07/24 12:19:47;;;;;;;74.57;34.37;;;22.00;99.90;;;;;;6244233;23;20530;-87
2023/07/24 12:22:14;;;;;;;73.27;34.10;;;22.20;99.90;;;;;;6243949;23;20403;-87
2023/07/24 12:24:41;;;;;;;77.87;34.10;;;22.30;99.90;;;;;;6243958;23;20415;-85
2023/07/24 12:27:08;;;;;;;77.30;36.67;;;22.40;99.90;;;;;;6243014;23;20415;-87
2023/07/24 12:29:36;;;;;;;74.27;35.20;;;22.50;99.90;;;;;;6243378;23;20408;-86
2023/07/24 12:32:03;;;;;;;71.67;32.47;;;22.70;99.90;;;;;;6243467;23;20404;-88